Time;durP1;ratioP1;P1;durP2;ratioP2;P2;SDS_P1;SDS_P2;PMS_P1;PMS_P2;Temp;Humidity;BMP_temperature;BMP_pressure;BME280_temperature;BME280_humidity;BME280_pressure;Samples;Min_cycle;Max_cycle;Signal;HPM_P1;HPM_P2
2022/08/30 00:01:08;;;;;;;;;;;;;;;15.46;100.00;100077.44;5073047;28;19928;-78
2022/08/30 00:03:39;;;;;;;;;;;;;;;15.44;100.00;100077.06;5072769;28;19938;-78
2022/08/30 00:06:08;;;;;;;;;;;;;;;15.46;100.00;100069.00;5073111;28;19992;-78
2022/08/30 00:08:36;;;;;;;;;;;;;;;15.20;100.00;100071.88;5072944;28;19947;-78
2022/08/30 00:11:04;;;;;;;;;;;;;;;15.35;100.00;100074.00;5072658;28;19925;-78
2022/08/30 00:13:33;;;;;;;;;;;;;;;15.36;100.00;100074.75;5082744;28;19932;-78
2022/08/30 00:16:00;;;;;;;;;;;;;;;15.42;100.00;100073.88;5092511;28;20331;-77
2022/08/30 00:18:27;;;;;;;;;;;;;;;15.29;100.00;100067.28;5091735;28;19924;-78
2022/08/30 00:20:54;;;;;;;;;;;;;;;15.49;100.00;100073.75;5092810;28;19924;-78
2022/08/30 00:23:21;;;;;;;;;;;;;;;15.43;100.00;100072.66;5095949;28;19924;-78
2022/08/30 00:25:48;;;;;;;;;;;;;;;15.21;100.00;100077.06;5096278;28;19931;-78
2022/08/30 00:28:16;;;;;;;;;;;;;;;15.29;100.00;100070.09;5095495;28;20524;-77
2022/08/30 00:30:44;;;;;;;;;;;;;;;15.43;100.00;100069.84;5096674;28;19924;-77
2022/08/30 00:33:11;;;;;;;;;;;;;;;15.71;100.00;100063.63;5096390;28;20347;-78
2022/08/30 00:35:40;;;;;;;;;;;;;;;15.69;100.00;100054.81;5096481;28;19978;-78
2022/08/30 00:38:07;;;;;;;;;;;;;;;15.66;100.00;100060.53;5095038;28;19924;-78
2022/08/30 00:40:34;;;;;;;;;;;;;;;15.57;100.00;100058.28;5094982;28;19931;-78
2022/08/30 00:43:02;;;;;;;;;;;;;;;15.67;100.00;100053.66;5095123;28;19959;-78
2022/08/30 00:45:33;;;;;;;;;;;;;;;15.67;100.00;100051.66;5096282;28;20018;-78
2022/08/30 00:48:02;;;;;;;;;;;;;;;15.56;100.00;100064.34;5094734;28;19931;-77
2022/08/30 00:50:43;;;;;;;;;;;;;;;15.78;100.00;100052.19;5096155;28;19924;-78
2022/08/30 00:53:16;;;;;;;;;;;;;;;15.92;100.00;100062.38;5094953;28;20394;-78
2022/08/30 00:55:44;;;;;;;;;;;;;;;15.86;100.00;100058.47;5096029;28;20394;-77
2022/08/30 00:58:20;;;;;;;;;;;;;;;16.06;100.00;100065.69;5095814;28;19924;-77
2022/08/30 01:00:48;;;;;;;;;;;;;;;15.37;100.00;100065.13;5095928;28;19924;-78
2022/08/30 01:03:15;;;;;;;;;;;;;;;15.22;100.00;100056.13;5094766;28;19924;-78
2022/08/30 01:05:43;;;;;;;;;;;;;;;15.23;100.00;100057.72;5096013;28;20329;-78
2022/08/30 01:08:10;;;;;;;;;;;;;;;15.43;100.00;100069.03;5095803;28;19928;-78
2022/08/30 01:10:37;;;;;;;;;;;;;;;15.69;100.00;100063.25;5095709;28;20402;-78
2022/08/30 01:13:05;;;;;;;;;;;;;;;15.62;100.00;100063.41;5094598;28;19924;-78
2022/08/30 01:15:33;;;;;;;;;;;;;;;15.90;100.00;100064.84;5095657;28;20144;-77
2022/08/30 01:18:01;;;;;;;;;;;;;;;16.17;100.00;100051.34;5095495;28;20026;-77
2022/08/30 01:20:32;;;;;;;;;;;;;;;16.28;100.00;100057.53;5095680;28;19924;-77
2022/08/30 01:23:07;;;;;;;;;;;;;;;16.19;100.00;100066.59;5095495;28;19924;-77
2022/08/30 01:25:36;;;;;;;;;;;;;;;16.06;100.00;100060.03;5094264;28;19931;-78
2022/08/30 01:28:05;;;;;;;;;;;;;;;16.12;100.00;100055.47;5077485;28;19924;-78
2022/08/30 01:30:33;;;;;;;;;;;;;;;15.70;100.00;100045.16;5095180;28;19927;-78
2022/08/30 01:33:02;;;;;;;;;;;;;;;15.75;100.00;100052.28;5094524;28;20336;-78
2022/08/30 01:35:37;;;;;;;;;;;;;;;15.78;100.00;100055.00;5095481;28;19924;-78
2022/08/30 01:38:05;;;;;;;;;;;;;;;15.86;100.00;100059.28;5093952;28;20452;-78
2022/08/30 01:40:32;;;;;;;;;;;;;;;15.88;100.00;100062.47;5095294;28;19935;-78
2022/08/30 01:42:59;;;;;;;;;;;;;;;15.59;100.00;100052.22;5128068;27;19958;-77
2022/08/30 01:45:26;;;;;;;;;;;;;;;15.74;100.00;100056.31;5094872;28;19928;-78
2022/08/30 01:47:53;;;;;;;;;;;;;;;15.61;100.00;100061.84;5095160;28;20385;-78
2022/08/30 01:50:20;;;;;;;;;;;;;;;15.66;100.00;100055.69;5094992;28;20160;-78
2022/08/30 01:52:47;;;;;;;;;;;;;;;15.76;100.00;100051.84;5093715;28;19924;-77
2022/08/30 01:55:14;;;;;;;;;;;;;;;15.95;100.00;100062.31;5093808;28;19924;-78
2022/08/30 01:57:41;;;;;;;;;;;;;;;15.75;100.00;100061.53;5094913;28;20371;-78
2022/08/30 02:00:09;;;;;;;;;;;;;;;15.79;100.00;100062.25;5094712;28;19960;-78
2022/08/30 02:02:39;;;;;;;;;;;;;;;15.40;100.00;100065.09;5094902;28;19924;-78
2022/08/30 02:05:06;;;;;;;;;;;;;;;15.34;100.00;100055.50;5094864;28;20021;-78
2022/08/30 02:07:35;;;;;;;;;;;;;;;15.25;100.00;100051.66;5093744;28;19923;-78
2022/08/30 02:10:03;;;;;;;;;;;;;;;15.41;100.00;100055.41;5095003;28;19924;-77
2022/08/30 02:12:30;;;;;;;;;;;;;;;15.51;100.00;100048.75;5093580;28;19928;-77
2022/08/30 02:14:57;;;;;;;;;;;;;;;15.58;100.00;100056.25;5094405;28;19968;-78
2022/08/30 02:17:24;;;;;;;;;;;;;;;15.57;100.00;100052.66;5093660;28;19931;-77
2022/08/30 02:19:51;;;;;;;;;;;;;;;15.37;100.00;100049.03;5094633;28;19924;-77
2022/08/30 02:22:19;;;;;;;;;;;;;;;15.31;100.00;100059.16;5093318;28;19924;-78
2022/08/30 02:24:47;;;;;;;;;;;;;;;15.18;100.00;100046.97;5093256;28;19924;-77
2022/08/30 02:27:14;;;;;;;;;;;;;;;15.23;100.00;100046.47;5094406;28;19924;-77
2022/08/30 02:29:41;;;;;;;;;;;;;;;15.14;100.00;100054.69;5094266;28;19943;-78
2022/08/30 02:32:09;;;;;;;;;;;;;;;15.23;100.00;100045.66;5093189;28;19931;-77
2022/08/30 02:34:36;;;;;;;;;;;;;;;15.27;100.00;100047.19;5092994;28;19931;-78
2022/08/30 02:37:04;;;;;;;;;;;;;;;15.02;100.00;100049.69;5094278;28;20015;-78
2022/08/30 02:39:32;;;;;;;;;;;;;;;15.25;100.00;100046.03;5094253;28;19971;-77
2022/08/30 02:41:59;;;;;;;;;;;;;;;15.25;100.00;100051.66;5094077;28;19928;-78
2022/08/30 02:44:51;;;;;;;;;;;;;;;15.04;100.00;100047.22;5093820;28;19931;-77
2022/08/30 02:47:18;;;;;;;;;;;;;;;14.94;100.00;100045.41;5094191;28;19939;-78
2022/08/30 02:49:45;;;;;;;;;;;;;;;14.89;100.00;100050.75;5094116;28;19950;-78
2022/08/30 02:52:12;;;;;;;;;;;;;;;14.93;100.00;100046.63;5093077;28;19924;-78
2022/08/30 02:54:39;;;;;;;;;;;;;;;14.83;100.00;100050.41;5094145;28;19947;-78
2022/08/30 02:57:07;;;;;;;;;;;;;;;14.80;100.00;100054.09;5093859;28;19931;-78
2022/08/30 02:59:36;;;;;;;;;;;;;;;14.73;100.00;100048.59;5092795;28;20356;-78
2022/08/30 03:02:03;;;;;;;;;;;;;;;14.59;100.00;100051.63;5094008;28;20404;-77
2022/08/30 03:04:30;;;;;;;;;;;;;;;14.63;100.00;100048.78;5092905;28;20027;-77
2022/08/30 03:06:57;;;;;;;;;;;;;;;14.52;100.00;100052.53;5093906;28;20340;-77
2022/08/30 03:09:25;;;;;;;;;;;;;;;14.58;100.00;100047.25;5094048;28;20368;-78
2022/08/30 03:11:52;;;;;;;;;;;;;;;14.37;100.00;100047.59;5092721;28;19924;-78
2022/08/30 03:14:19;;;;;;;;;;;;;;;14.36;100.00;100046.78;5092985;28;19930;-78
2022/08/30 03:16:46;;;;;;;;;;;;;;;14.25;100.00;100051.00;5092594;28;19930;-77
2022/08/30 03:19:13;;;;;;;;;;;;;;;14.17;100.00;100044.66;5092276;28;20271;-78
2022/08/30 03:21:40;;;;;;;;;;;;;;;14.13;100.00;100055.13;5093864;28;19924;-78
2022/08/30 03:24:07;;;;;;;;;;;;;;;14.03;100.00;100049.66;5093942;28;19924;-78
2022/08/30 03:26:34;;;;;;;;;;;;;;;13.92;100.00;100055.44;5075843;28;19963;-78
2022/08/30 03:29:02;;;;;;;;;;;;;;;13.82;100.00;100052.78;5092695;28;19931;-78
2022/08/30 03:31:29;;;;;;;;;;;;;;;13.75;100.00;100050.06;5092484;28;19924;-78
2022/08/30 03:33:56;;;;;;;;;;;;;;;13.59;100.00;100056.28;5093483;28;19951;-78
2022/08/30 03:36:23;;;;;;;;;;;;;;;13.58;100.00;100057.50;5093858;28;20310;-78
2022/08/30 03:38:50;;;;;;;;;;;;;;;13.58;100.00;100057.50;5092552;28;19931;-78
2022/08/30 03:41:17;;;;;;;;;;;;;;;13.66;100.00;100058.22;5092364;28;19928;-77
2022/08/30 03:43:46;;;;;;;;;;;;;;;13.61;100.00;100050.25;5093256;28;19924;-78
2022/08/30 03:46:13;;;;;;;;;;;;;;;13.57;100.00;100055.13;5092475;28;19977;-78
2022/08/30 03:48:40;;;;;;;;;;;;;;;13.55;100.00;100047.13;5092317;28;19931;-78
2022/08/30 03:51:07;;;;;;;;;;;;;;;13.55;100.00;100051.94;5093618;28;20317;-78
2022/08/30 03:53:34;;;;;;;;;;;;;;;13.32;100.00;100046.19;5093566;28;19924;-78
2022/08/30 03:56:01;;;;;;;;;;;;;;;13.36;100.00;100056.16;5094988;28;20263;-78
2022/08/30 03:58:28;;;;;;;;;;;;;;;13.37;100.00;100051.34;5097410;28;19924;-77
2022/08/30 04:00:55;;;;;;;;;;;;;;;13.27;100.00;100050.25;5097282;28;19924;-78
2022/08/30 04:03:24;;;;;;;;;;;;;;;13.40;100.00;100051.31;5096797;28;19967;-77
2022/08/30 04:05:52;;;;;;;;;;;;;;;13.36;100.00;100049.75;5097093;28;19928;-77
2022/08/30 04:08:19;;;;;;;;;;;;;;;13.44;100.00;100045.63;5096656;28;19924;-78
2022/08/30 04:10:48;;;;;;;;;;;;;;;13.21;100.00;100042.72;5096565;28;19924;-78
2022/08/30 04:13:15;;;;;;;;;;;;;;;13.21;100.00;100037.88;5096634;28;19924;-78
2022/08/30 04:15:42;;;;;;;;;;;;;;;13.21;100.00;100046.31;5096376;28;19924;-78
2022/08/30 04:18:12;;;;;;;;;;;;;;;13.42;100.00;100050.91;5096662;28;20390;-77
2022/08/30 04:20:39;;;;;;;;;;;;;;;13.37;100.00;100051.34;5096951;28;19924;-78
2022/08/30 04:23:07;;;;;;;;;;;;;;;13.42;100.00;100056.50;5096754;28;19935;-78
2022/08/30 04:25:34;;;;;;;;;;;;;;;13.46;100.00;100057.25;5095490;28;19924;-78
2022/08/30 04:28:02;;;;;;;;;;;;;;;13.34;100.00;100055.00;5096818;28;20387;-78
2022/08/30 04:30:30;;;;;;;;;;;;;;;13.28;100.00;100065.09;5095394;28;19924;-78
2022/08/30 04:32:57;;;;;;;;;;;;;;;13.35;100.00;100065.81;5096515;28;20276;-78
2022/08/30 04:35:25;;;;;;;;;;;;;;;13.35;100.00;100065.00;5096528;28;19924;-78
2022/08/30 04:37:52;;;;;;;;;;;;;;;13.39;100.00;100062.97;5096562;28;19939;-77
2022/08/30 04:40:19;;;;;;;;;;;;;;;13.23;100.00;100062.72;5095135;28;19927;-77
2022/08/30 04:42:46;;;;;;;;;;;;;;;12.89;100.00;100064.66;5095139;28;19924;-78
2022/08/30 04:45:15;;;;;;;;;;;;;;;12.95;100.00;100068.63;5095115;28;19989;-78
2022/08/30 04:47:42;;;;;;;;;;;;;;;12.93;100.00;100071.03;5095058;28;20271;-78
2022/08/30 04:50:10;;;;;;;;;;;;;;;13.17;100.00;100075.63;5096321;28;19947;-78
2022/08/30 04:52:38;;;;;;;;;;;;;;;13.09;100.00;100060.06;5095996;28;19924;-78
2022/08/30 04:55:05;;;;;;;;;;;;;;;13.31;100.00;100069.88;5094874;28;19924;-78
2022/08/30 04:57:33;;;;;;;;;;;;;;;13.26;100.00;100073.91;5096027;28;20295;-77
2022/08/30 05:00:00;;;;;;;;;;;;;;;13.23;100.00;100079.56;5078228;28;20432;-77
2022/08/30 05:02:28;;;;;;;;;;;;;;;13.28;100.00;100071.50;5094893;28;19932;-78
2022/08/30 05:07:41;;;;;;;;;;;;;;;13.35;100.00;100074.22;5096043;28;20034;-78
2022/08/30 05:10:15;;;;;;;;;;;;;;;13.31;100.00;100075.47;5094682;28;20291;-78
2022/08/30 05:12:42;;;;;;;;;;;;;;;13.25;100.00;100077.16;5094605;28;19935;-78
2022/08/30 05:15:10;;;;;;;;;;;;;;;13.25;100.00;100065.91;5095700;28;19947;-78
2022/08/30 05:17:38;;;;;;;;;;;;;;;13.31;100.00;100073.47;5128427;27;19924;-78
2022/08/30 05:20:06;;;;;;;;;;;;;;;13.47;100.00;100067.25;5095822;28;19924;-78
2022/08/30 05:22:48;;;;;;;;;;;;;;;13.41;100.00;100064.13;5078492;28;19960;-78
2022/08/30 05:25:26;;;;;;;;;;;;;;;13.50;100.00;100069.22;5094400;28;19931;-78
2022/08/30 05:27:53;;;;;;;;;;;;;;;13.35;100.00;100068.59;5077493;28;19931;-78
2022/08/30 05:30:21;;;;;;;;;;;;;;;13.34;100.00;100072.63;5093958;28;19931;-78
2022/08/30 05:32:48;;;;;;;;;;;;;;;13.44;100.00;100080.13;5095375;28;20364;-78
2022/08/30 05:35:18;;;;;;;;;;;;;;;13.57;100.00;100078.38;5095454;28;20339;-78
2022/08/30 05:37:49;;;;;;;;;;;;;;;13.93;100.00;100079.50;5093908;28;20022;-78
2022/08/30 05:40:16;;;;;;;;;;;;;;;13.78;100.00;100080.91;5094080;28;19924;-77
2022/08/30 05:42:47;;;;;;;;;;;;;;;13.72;100.00;100084.63;5077926;28;19924;-77
2022/08/30 05:45:14;;;;;;;;;;;;;;;13.88;100.00;100082.00;5093902;28;20050;-78
2022/08/30 05:47:42;;;;;;;;;;;;;;;13.96;100.00;100089.91;5094002;28;19928;-79
2022/08/30 05:50:09;;;;;;;;;;;;;;;13.97;100.00;100082.28;5095014;28;20444;-77
2022/08/30 05:52:37;;;;;;;;;;;;;;;14.03;100.00;100089.00;5094898;28;19924;-77
2022/08/30 05:55:06;;;;;;;;;;;;;;;13.94;100.00;100092.34;5076983;28;20448;-77
2022/08/30 05:57:35;;;;;;;;;;;;;;;14.21;100.00;100078.31;5093651;28;19924;-77
2022/08/30 06:00:05;;;;;;;;;;;;;;;14.02;100.00;100077.00;5092824;28;19928;-78
2022/08/30 06:02:51;;;;;;;;;;;;;;;14.28;100.00;100075.44;5094703;28;19924;-78
2022/08/30 06:05:25;;;;;;;;;;;;;;;14.36;100.00;100079.72;5093303;28;19924;-78
2022/08/30 06:07:52;;;;;;;;;;;;;;;14.27;100.00;100077.44;5093253;28;20505;-78
2022/08/30 06:10:19;;;;;;;;;;;;;;;14.34;100.00;100070.94;5093253;28;20283;-78
2022/08/30 06:12:46;;;;;;;;;;;;;;;14.73;100.00;100075.91;5093218;28;19924;-78
2022/08/30 06:15:13;;;;;;;;;;;;;;;14.87;100.00;100070.88;5093692;28;19931;-78
2022/08/30 06:17:40;;;;;;;;;;;;;;;15.01;100.00;100064.97;5094560;28;19931;-77
2022/08/30 06:20:19;;;;;;;;;;;;;;;15.18;100.00;100063.06;5092204;28;19924;-77
2022/08/30 06:22:46;;;;;;;;;;;;;;;15.14;100.00;100060.31;5094282;28;20062;-78
2022/08/30 06:25:15;;;;;;;;;;;;;;;15.11;100.00;100055.56;5093066;28;19924;-77
2022/08/30 06:27:42;;;;;;;;;;;;;;;15.35;100.00;100067.56;5094286;28;20026;-77
2022/08/30 06:30:12;;;;;;;;;;;;;;;15.29;100.00;100067.28;5093187;28;19924;-77
2022/08/30 06:32:39;;;;;;;;;;;;;;;15.32;100.00;100063.59;5094340;28;19924;-75
2022/08/30 06:35:12;;;;;;;;;;;;;;;15.48;100.00;100065.75;5093969;28;19928;-78
2022/08/30 06:37:41;;;;;;;;;;;;;;;15.39;100.00;100063.47;5094164;28;19931;-77
2022/08/30 06:40:09;;;;;;;;;;;;;;;15.42;100.00;100073.88;5075885;28;19924;-77
2022/08/30 06:42:36;;;;;;;;;;;;;;;15.57;100.00;100063.13;5075759;28;19961;-77
2022/08/30 06:45:04;;;;;;;;;;;;;;;15.57;100.00;100057.50;5093732;28;19930;-77
2022/08/30 06:47:31;;;;;;;;;;;;;;;15.65;100.00;100062.56;5094149;28;20271;-77
2022/08/30 06:49:58;;;;;;;;;;;;;;;15.63;100.00;100067.03;5093837;28;19935;-77
2022/08/30 06:52:25;;;;;;;;;;;;;;;15.70;100.00;100061.25;5093942;28;19931;-77
2022/08/30 06:54:59;;;;;;;;;;;;;;;15.87;100.00;100063.69;5093737;28;19931;-77
2022/08/30 06:57:26;;;;;;;;;;;;;;;16.17;100.00;100063.44;5075977;28;19931;-77
2022/08/30 06:59:54;;;;;;;;;;;;;;;16.63;100.00;100065.16;5093702;28;19924;-77
2022/08/30 07:02:23;;;;;;;;;;;;;;;17.66;100.00;100064.84;5092450;28;19928;-76
2022/08/30 07:04:50;;;;;;;;;;;;;;;18.97;100.00;100056.66;5075572;28;19924;-75
2022/08/30 07:07:18;;;;;;;;;;;;;;;19.42;100.00;100057.09;5092572;28;20387;-76
2022/08/30 07:09:46;;;;;;;;;;;;;;;20.41;100.00;100047.66;5093780;28;19924;-76
2022/08/30 07:12:14;;;;;;;;;;;;;;;21.89;100.00;100047.72;5093618;28;20407;-76
2022/08/30 07:14:41;;;;;;;;;;;;;;;22.83;100.00;100045.97;5092485;28;19925;-76
2022/08/30 07:19:57;;;;;;;;;;;;;;;23.47;100.00;100037.00;5093533;28;19972;-77
2022/08/30 07:22:24;;;;;;;;;;;;;;;23.98;100.00;100034.63;5075554;28;19931;-77
2022/08/30 07:24:51;;;;;;;;;;;;;;;24.50;100.00;100030.84;5089526;28;19924;-76
2022/08/30 07:27:21;;;;;;;;;;;;;;;24.90;100.00;100035.91;5065038;28;19924;-77
2022/08/30 07:29:49;;;;;;;;;;;;;;;25.24;100.00;100035.84;5068490;28;20357;-76
2022/08/30 07:32:16;;;;;;;;;;;;;;;24.66;100.00;100024.63;5071469;28;19936;-76
2022/08/30 07:34:43;;;;;;;;;;;;;;;25.01;100.00;100028.25;5071472;28;20018;-76
2022/08/30 07:37:13;;;;;;;;;;;;;;;24.92;100.00;100034.09;5073567;28;20280;-76
2022/08/30 07:39:40;;;;;;;;;;;;;;;24.85;100.00;100022.31;5071699;28;19932;-76
2022/08/30 07:42:08;;;;;;;;;;;;;;;24.11;100.00;100032.28;5072951;28;19971;-76
2022/08/30 07:44:35;;;;;;;;;;;;;;;23.33;100.00;100032.84;5073198;28;19928;-76
2022/08/30 07:47:03;;;;;;;;;;;;;;;23.76;100.00;100039.91;5072258;28;19973;-76
2022/08/30 07:49:30;;;;;;;;;;;;;;;23.95;100.00;100038.44;5071526;28;19925;-76
2022/08/30 07:52:07;;;;;;;;;;;;;;;24.24;100.00;100041.31;5056134;28;19924;-76
2022/08/30 07:54:34;;;;;;;;;;;;;;;24.40;100.00;100037.97;5071488;28;19924;-76
2022/08/30 07:57:01;;;;;;;;;;;;;;;24.61;100.00;100031.03;5070636;28;19924;-76
2022/08/30 07:59:29;;;;;;;;;;;;;;;24.25;100.00;100034.34;5072048;28;20009;-75
2022/08/30 08:01:57;;;;;;;;;;;;;;;24.49;100.00;100043.56;5071878;28;19930;-75
2022/08/30 08:04:33;;;;;;;;;;;;;;;23.77;100.00;100035.75;5073206;28;19936;-75
2022/08/30 08:07:00;;;;;;;;;;;;;;;23.67;100.00;100042.84;5071185;28;19924;-75
2022/08/30 08:09:37;;;;;;;;;;;;;;;23.81;100.00;100048.56;5071732;28;20023;-76
2022/08/30 08:12:05;;;;;;;;;;;;;;;24.18;100.00;100052.66;5070988;28;19974;-76
2022/08/30 08:14:32;;;;;;;;;;;;;;;25.24;100.00;100038.69;5072611;28;19933;-77
2022/08/30 08:17:00;;;;;;;;;;;;;;;25.64;100.00;100032.97;5070770;28;19929;-76
2022/08/30 08:19:27;;;;;;;;;;;;;;;25.25;100.00;100040.28;5071431;28;20308;-76
2022/08/30 08:21:55;;;;;;;;;;;;;;;24.48;100.00;100042.78;5071126;28;19924;-76
2022/08/30 08:24:35;;;;;;;;;;;;;;;23.26;100.00;100052.38;5072414;28;19931;-76
2022/08/30 08:27:08;;;;;;;;;;;;;;;22.81;100.00;100042.81;5071276;28;20015;-76
2022/08/30 08:29:35;;;;;;;;;;;;;;;23.06;100.00;100050.91;5053938;28;20022;-76
2022/08/30 08:32:02;;;;;;;;;;;;;;;23.47;100.00;100046.34;5072259;28;19936;-77
2022/08/30 08:34:29;;;;;;;;;;;;;;;23.42;100.00;100049.06;5072111;28;20366;-76
2022/08/30 08:36:58;;;;;;;;;;;;;;;23.14;100.00;100057.81;5070572;28;20521;-76
2022/08/30 08:39:25;;;;;;;;;;;;;;;22.75;100.00;100058.22;5072478;28;19928;-76
2022/08/30 08:41:58;;;;;;;;;;;;;;;22.92;100.00;100059.38;5074483;28;19936;-76
2022/08/30 08:44:51;;;;;;;;;;;;;;;21.59;100.00;100062.91;5075816;28;19928;-75
2022/08/30 08:47:36;;;;;;;;;;;;;;;21.50;100.00;100054.38;5076036;28;19925;-75
2022/08/30 08:50:07;;;;;;;;;;;;;;;22.35;100.00;100069.91;5057850;28;20017;-76
2022/08/30 08:55:33;;;;;;;;;;;;;;;22.60;100.00;100058.13;5075934;28;19932;-76
2022/08/30 08:58:00;;;;;;;;;;;;;;;22.48;100.00;100050.56;5075668;28;20387;-76
2022/08/30 09:00:28;;;;;;;;;;;;;;;22.20;100.00;100054.78;5075530;28;19925;-75
2022/08/30 09:03:03;;;;;;;;;;;;;;;22.76;100.00;100054.91;5075846;28;19931;-75
2022/08/30 09:05:36;;;;;;;;;;;;;;;21.86;100.00;100048.69;5075445;28;19929;-76
2022/08/30 09:08:06;;;;;;;;;;;;;;;20.50;100.00;100061.88;5065656;28;20015;-75
2022/08/30 09:10:35;;;;;;;;;;;;;;;21.54;100.00;100058.63;5055646;28;19931;-75
2022/08/30 09:13:18;;;;;;;;;;;;;;;22.23;100.00;100050.97;5055380;28;19929;-76
2022/08/30 09:15:46;;;;;;;;;;;;;;;23.06;100.00;100044.41;5055238;28;19928;-76
2022/08/30 09:18:17;;;;;;;;;;;;;;;23.19;100.00;100064.13;5050111;28;20334;-75
2022/08/30 09:20:47;;;;;;;;;;;;;;;22.24;100.00;100066.78;5050188;28;19933;-75
2022/08/30 09:23:26;;;;;;;;;;;;;;;22.08;100.00;100055.78;5051794;28;19929;-76
2022/08/30 09:25:55;;;;;;;;;;;;;;;22.46;100.00;100067.31;5036013;28;19925;-76
2022/08/30 09:28:24;;;;;;;;;;;;;;;22.02;100.00;100057.69;5055171;28;19929;-76
2022/08/30 09:31:16;;;;;;;;;;;;;;;22.81;100.00;100068.47;5037279;28;20391;-76
2022/08/30 09:34:00;;;;;;;;;;;;;;;21.80;100.00;100062.75;5055193;28;19931;-76
2022/08/30 09:36:31;;;;;;;;;;;;;;;20.47;100.00;100054.31;5055048;28;20011;-76
2022/08/30 09:39:15;;;;;;;;;;;;;;;21.19;100.00;100058.16;5054843;28;19925;-76
2022/08/30 09:41:44;;;;;;;;;;;;;;;21.78;100.00;100056.75;5054584;28;20019;-76
2022/08/30 09:44:16;;;;;;;;;;;;;;;20.96;100.00;100055.91;5058156;28;19924;-76
2022/08/30 09:46:48;;;;;;;;;;;;;;;21.05;100.00;100067.28;5074821;28;20491;-76
2022/08/30 09:53:10;;;;;;;;;;;;;;;21.32;100.00;100064.50;5073636;28;19917;-76
2022/08/30 09:55:40;;;;;;;;;;;;;;;21.09;100.00;100070.78;5073565;28;19931;-76
2022/08/30 09:58:19;;;;;;;;;;;;;;;21.40;100.00;100068.59;5069148;28;20011;-76
2022/08/30 10:01:02;;;;;;;;;;;;;;;20.54;100.00;100066.16;5070788;28;19963;-76
2022/08/30 10:03:39;;;;;;;;;;;;;;;20.51;100.00;100069.13;5070277;28;20003;-76
2022/08/30 10:06:11;;;;;;;;;;;;;;;20.21;100.00;100073.59;5069972;28;19924;-77
2022/08/30 10:08:38;;;;;;;;;;;;;;;20.16;100.00;100076.25;5070600;28;19932;-76
2022/08/30 10:11:12;;;;;;;;;;;;;;;20.22;100.00;100080.06;5070190;28;19935;-76
2022/08/30 10:13:49;;;;;;;;;;;;;;;20.05;100.00;100064.47;5069572;28;19924;-76
2022/08/30 10:16:16;;;;;;;;;;;;;;;20.22;100.00;100085.75;5068429;28;19924;-76
2022/08/30 10:18:46;;;;;;;;;;;;;;;20.60;100.00;100072.03;5070290;28;19932;-76
2022/08/30 10:21:16;;;;;;;;;;;;;;;20.61;100.00;100071.56;5070521;28;20650;-76
2022/08/30 10:23:48;;;;;;;;;;;;;;;20.08;100.00;100080.56;5069738;28;19938;-76
2022/08/30 10:26:27;;;;;;;;;;;;;;;20.66;100.00;100087.97;5068467;28;19939;-76
2022/08/30 10:28:57;;;;;;;;;;;;;;;20.58;100.00;100083.06;5067545;28;20009;-76
2022/08/30 10:31:27;;;;;;;;;;;;;;;21.01;100.00;100082.91;5070339;28;20389;-76
2022/08/30 10:34:03;;;;;;;;;;;;;;;21.14;100.00;100069.38;5070468;28;19959;-79
2022/08/30 10:36:38;;;;;;;;;;;;;;;21.43;100.00;100061.19;5052288;28;19928;-76
2022/08/30 10:39:07;;;;;;;;;;;;;;;21.33;100.00;100066.06;5069943;28;20467;-77
2022/08/30 10:41:36;;;;;;;;;;;;;;;21.35;100.00;100066.41;5069484;28;19983;-76
2022/08/30 10:44:10;;;;;;;;;;;;;;;21.03;100.00;100069.03;5070075;28;19925;-77
2022/08/30 10:47:18;;;;;;;;;;;;;;;21.08;100.00;100074.09;5068812;28;19924;-76
2022/08/30 10:49:48;;;;;;;;;;;;;;;20.82;100.00;100073.53;5027466;28;19925;-76
2022/08/30 10:52:24;;;;;;;;;;;;;;;21.25;100.00;100066.84;5010691;28;19959;-76
2022/08/30 10:54:58;;;;;;;;;;;;;;;21.32;100.00;100060.84;5026952;28;19979;-76
2022/08/30 10:57:25;;;;;;;;;;;;;;;20.52;100.00;100077.19;5026637;28;19929;-76
2022/08/30 11:00:00;;;;;;;;;;;;;;;20.90;100.00;100063.44;5027150;28;20328;-76
2022/08/30 11:02:37;;;;;;;;;;;;;;;21.25;100.00;100056.25;5014366;28;19936;-76
2022/08/30 11:05:23;;;;;;;;;;;;;;;21.56;100.00;100058.16;5031305;28;20009;-76
2022/08/30 11:07:50;;;;;;;;;;;;;;;21.94;100.00;100056.44;5014700;28;19932;-76
2022/08/30 11:10:32;;;;;;;;;;;;;;;22.00;100.00;100065.91;5031447;28;20365;-76
2022/08/30 11:13:20;;;;;;;;;;;;;;;21.65;100.00;100067.50;5031543;28;20369;-76
2022/08/30 11:15:56;;;;;;;;;;;;;;;21.51;100.00;100062.44;5031510;28;19995;-76
2022/08/30 11:18:24;;;;;;;;;;;;;;;21.96;100.00;100062.41;5030118;28;19948;-76
2022/08/30 11:21:15;;;;;;;;;;;;;;;22.09;100.00;100063.03;5058729;28;19925;-76
2022/08/30 11:23:56;;;;;;;;;;;;;;;21.22;100.00;100050.72;5073601;28;20375;-76
2022/08/30 11:26:42;;;;;;;;;;;;;;;21.41;100.00;100052.34;5073612;28;19936;-76
2022/08/30 11:29:25;;;;;;;;;;;;;;;21.58;100.00;100045.06;5072353;28;19925;-76
2022/08/30 11:31:55;;;;;;;;;;;;;;;21.64;100.00;100048.84;5073268;28;19934;-76
2022/08/30 11:34:40;;;;;;;;;;;;;;;21.64;100.00;100046.00;5073567;28;19924;-75
2022/08/30 11:37:28;;;;;;;;;;;;;;;21.96;100.00;100042.50;5073717;28;19978;-76
2022/08/30 11:39:57;;;;;;;;;;;;;;;21.89;100.00;100051.38;5073148;28;19924;-76
2022/08/30 11:42:26;;;;;;;;;;;;;;;21.74;100.00;100039.06;5073356;28;20018;-76
2022/08/30 11:45:13;;;;;;;;;;;;;;;22.08;100.00;100050.06;5072082;28;19929;-75
2022/08/30 11:47:47;;;;;;;;;;;;;;;21.94;100.00;100039.34;5072123;28;19996;-76
2022/08/30 11:50:18;;;;;;;;;;;;;;;21.91;100.00;100039.50;5072277;28;19928;-76
2022/08/30 11:52:57;;;;;;;;;;;;;;;21.90;100.00;100050.09;5073347;28;20356;-76
2022/08/30 11:55:37;;;;;;;;;;;;;;;22.11;100.00;100049.13;5073530;28;20005;-76
2022/08/30 11:58:13;;;;;;;;;;;;;;;21.15;100.00;100040.47;5072147;28;19928;-75
2022/08/30 12:00:43;;;;;;;;;;;;;;;21.51;100.00;100050.28;5072596;28;19925;-75
2022/08/30 12:03:19;;;;;;;;;;;;;;;21.40;100.00;100050.75;5072139;28;20364;-76
2022/08/30 12:05:52;;;;;;;;;;;;;;;21.90;100.00;100055.00;5073173;28;19925;-77
2022/08/30 12:08:19;;;;;;;;;;;;;;;22.26;100.00;100038.63;5071992;28;19924;-78
2022/08/30 12:10:57;;;;;;;;;;;;;;;21.98;100.00;100042.00;5072057;28;20317;-78
2022/08/30 12:13:35;;;;;;;;;;;;;;;22.03;100.00;100035.69;5073085;28;20457;-78
2022/08/30 12:16:04;;;;;;;;;;;;;;;22.52;100.00;100030.50;5073127;28;19925;-80
2022/08/30 12:18:51;;;;;;;;;;;;;;;22.63;100.00;100039.28;5058690;28;19924;-79
2022/08/30 12:21:21;;;;;;;;;;;;;;;22.94;100.00;100042.59;5069962;28;20485;-79
2022/08/30 12:23:51;;;;;;;;;;;;;;;23.17;100.00;100033.25;5049194;28;19924;-78
2022/08/30 12:26:18;;;;;;;;;;;;;;;23.05;100.00;100035.06;5071248;28;19924;-78
2022/08/30 12:28:47;;;;;;;;;;;;;;;23.17;100.00;100036.09;5071762;28;19954;-79
2022/08/30 12:31:17;;;;;;;;;;;;;;;23.40;100.00;100040.22;5054752;28;19924;-79
2022/08/30 12:33:46;;;;;;;;;;;;;;;22.40;100.00;100040.00;5072442;28;20613;-79
2022/08/30 12:36:32;;;;;;;;;;;;;;;22.34;100.00;100042.69;5072314;28;19928;-79
2022/08/30 12:39:15;;;;;;;;;;;;;;;22.33;100.00;100038.28;5072365;28;19939;-79
2022/08/30 12:41:43;;;;;;;;;;;;;;;22.51;100.00;100038.22;5071055;28;19925;-79
2022/08/30 12:44:14;;;;;;;;;;;;;;;22.56;100.00;100034.75;5070627;28;20062;-79
2022/08/30 12:46:44;;;;;;;;;;;;;;;22.63;100.00;100042.13;5071685;28;19924;-79
2022/08/30 12:49:12;;;;;;;;;;;;;;;22.93;100.00;100036.09;5071132;28;20728;-79
2022/08/30 12:51:47;;;;;;;;;;;;;;;23.13;100.00;100041.19;5071167;28;19928;-79
2022/08/30 12:54:19;;;;;;;;;;;;;;;23.30;100.00;100033.81;5071022;28;20401;-79
2022/08/30 12:56:51;;;;;;;;;;;;;;;23.20;100.00;100029.44;5071326;28;19925;-79